sensor_id;sensor_type;location;lat;lon;timestamp;P1;durP1;ratioP1;P2;durP2;ratioP2
57331;SDS011;43164;50.908;18.092;2023-07-13T00:01:24;12.50;;;4.90;;
57331;SDS011;43164;50.908;18.092;2023-07-13T00:03:52;12.70;;;5.10;;
57331;SDS011;43164;50.908;18.092;2023-07-13T00:06:21;12.60;;;4.80;;
57331;SDS011;43164;50.908;18.092;2023-07-13T00:08:58;12.10;;;4.80;;
57331;SDS011;43164;50.908;18.092;2023-07-13T00:11:28;10.90;;;4.80;;
57331;SDS011;43164;50.908;18.092;2023-07-13T00:13:57;11.90;;;5.20;;
57331;SDS011;43164;50.908;18.092;2023-07-13T00:16:26;12.20;;;5.20;;
57331;SDS011;43164;50.908;18.092;2023-07-13T00:18:55;13.40;;;5.00;;
57331;SDS011;43164;50.908;18.092;2023-07-13T00:21:25;12.00;;;5.80;;
57331;SDS011;43164;50.908;18.092;2023-07-13T00:23:59;10.70;;;5.50;;
57331;SDS011;43164;50.908;18.092;2023-07-13T00:26:28;10.20;;;4.90;;
57331;SDS011;43164;50.908;18.092;2023-07-13T00:28:59;11.60;;;5.00;;
57331;SDS011;43164;50.908;18.092;2023-07-13T00:31:28;9.20;;;5.20;;
57331;SDS011;43164;50.908;18.092;2023-07-13T00:33:55;9.50;;;5.30;;
57331;SDS011;43164;50.908;18.092;2023-07-13T00:36:24;9.70;;;5.30;;
57331;SDS011;43164;50.908;18.092;2023-07-13T00:38:53;11.20;;;5.80;;
57331;SDS011;43164;50.908;18.092;2023-07-13T00:41:21;11.80;;;5.10;;
57331;SDS011;43164;50.908;18.092;2023-07-13T00:43:50;13.40;;;5.90;;
57331;SDS011;43164;50.908;18.092;2023-07-13T00:46:21;11.60;;;5.20;;
57331;SDS011;43164;50.908;18.092;2023-07-13T00:49:03;12.50;;;5.30;;
57331;SDS011;43164;50.908;18.092;2023-07-13T00:51:35;11.90;;;5.70;;
57331;SDS011;43164;50.908;18.092;2023-07-13T00:54:11;12.70;;;4.70;;
57331;SDS011;43164;50.908;18.092;2023-07-13T00:56:43;14.80;;;5.60;;
57331;SDS011;43164;50.908;18.092;2023-07-13T00:59:13;9.70;;;5.60;;
57331;SDS011;43164;50.908;18.092;2023-07-13T01:01:43;9.90;;;5.10;;
57331;SDS011;43164;50.908;18.092;2023-07-13T01:04:19;11.20;;;4.70;;
57331;SDS011;43164;50.908;18.092;2023-07-13T01:06:46;11.80;;;5.30;;
57331;SDS011;43164;50.908;18.092;2023-07-13T01:09:15;11.80;;;5.20;;
57331;SDS011;43164;50.908;18.092;2023-07-13T01:11:43;10.10;;;5.00;;
57331;SDS011;43164;50.908;18.092;2023-07-13T01:14:11;8.90;;;5.10;;
57331;SDS011;43164;50.908;18.092;2023-07-13T01:16:40;11.00;;;4.90;;
57331;SDS011;43164;50.908;18.092;2023-07-13T01:22:05;9.10;;;5.00;;
57331;SDS011;43164;50.908;18.092;2023-07-13T01:24:36;14.40;;;5.20;;
57331;SDS011;43164;50.908;18.092;2023-07-13T01:27:04;13.90;;;6.30;;
57331;SDS011;43164;50.908;18.092;2023-07-13T01:29:35;14.80;;;6.10;;
57331;SDS011;43164;50.908;18.092;2023-07-13T01:32:18;14.70;;;6.00;;
57331;SDS011;43164;50.908;18.092;2023-07-13T01:34:53;15.60;;;6.10;;
57331;SDS011;43164;50.908;18.092;2023-07-13T01:37:23;11.70;;;5.40;;
57331;SDS011;43164;50.908;18.092;2023-07-13T01:39:53;11.60;;;5.40;;
57331;SDS011;43164;50.908;18.092;2023-07-13T01:42:21;14.30;;;5.30;;
57331;SDS011;43164;50.908;18.092;2023-07-13T01:44:50;13.50;;;5.50;;
57331;SDS011;43164;50.908;18.092;2023-07-13T01:47:23;11.10;;;5.90;;
57331;SDS011;43164;50.908;18.092;2023-07-13T01:49:55;8.30;;;5.20;;
57331;SDS011;43164;50.908;18.092;2023-07-13T01:52:28;11.30;;;5.30;;
57331;SDS011;43164;50.908;18.092;2023-07-13T01:54:58;10.00;;;5.10;;
57331;SDS011;43164;50.908;18.092;2023-07-13T01:57:30;9.60;;;4.90;;
57331;SDS011;43164;50.908;18.092;2023-07-13T02:00:02;11.60;;;4.70;;
57331;SDS011;43164;50.908;18.092;2023-07-13T02:02:34;10.30;;;4.90;;
57331;SDS011;43164;50.908;18.092;2023-07-13T02:05:02;9.20;;;4.90;;
57331;SDS011;43164;50.908;18.092;2023-07-13T02:07:31;11.30;;;5.70;;
57331;SDS011;43164;50.908;18.092;2023-07-13T02:09:59;13.00;;;5.70;;
57331;SDS011;43164;50.908;18.092;2023-07-13T02:12:28;15.60;;;6.10;;
57331;SDS011;43164;50.908;18.092;2023-07-13T02:14:58;13.80;;;6.20;;
57331;SDS011;43164;50.908;18.092;2023-07-13T02:17:36;10.90;;;5.70;;
57331;SDS011;43164;50.908;18.092;2023-07-13T02:20:04;14.00;;;5.40;;
57331;SDS011;43164;50.908;18.092;2023-07-13T02:22:41;12.60;;;5.60;;
57331;SDS011;43164;50.908;18.092;2023-07-13T02:25:11;14.20;;;5.30;;
57331;SDS011;43164;50.908;18.092;2023-07-13T02:27:46;11.30;;;4.90;;
57331;SDS011;43164;50.908;18.092;2023-07-13T02:30:16;12.70;;;5.40;;
57331;SDS011;43164;50.908;18.092;2023-07-13T02:32:51;10.80;;;5.10;;
57331;SDS011;43164;50.908;18.092;2023-07-13T02:35:23;11.30;;;6.00;;
57331;SDS011;43164;50.908;18.092;2023-07-13T02:37:59;14.60;;;6.20;;
57331;SDS011;43164;50.908;18.092;2023-07-13T02:40:30;13.10;;;6.40;;
57331;SDS011;43164;50.908;18.092;2023-07-13T02:43:07;11.60;;;5.10;;
57331;SDS011;43164;50.908;18.092;2023-07-13T02:45:36;11.90;;;6.20;;
57331;SDS011;43164;50.908;18.092;2023-07-13T02:48:14;13.60;;;6.20;;
57331;SDS011;43164;50.908;18.092;2023-07-13T02:50:44;12.80;;;7.10;;
57331;SDS011;43164;50.908;18.092;2023-07-13T02:53:19;12.00;;;6.40;;
57331;SDS011;43164;50.908;18.092;2023-07-13T02:55:50;14.50;;;6.10;;
57331;SDS011;43164;50.908;18.092;2023-07-13T02:58:28;15.50;;;6.30;;
57331;SDS011;43164;50.908;18.092;2023-07-13T03:00:57;11.20;;;6.20;;
57331;SDS011;43164;50.908;18.092;2023-07-13T03:03:38;13.10;;;6.70;;
57331;SDS011;43164;50.908;18.092;2023-07-13T03:06:06;13.40;;;7.10;;
57331;SDS011;43164;50.908;18.092;2023-07-13T03:08:44;10.60;;;6.10;;
57331;SDS011;43164;50.908;18.092;2023-07-13T03:11:17;16.20;;;7.40;;
57331;SDS011;43164;50.908;18.092;2023-07-13T03:13:53;15.80;;;6.10;;
57331;SDS011;43164;50.908;18.092;2023-07-13T03:16:23;15.80;;;6.30;;
57331;SDS011;43164;50.908;18.092;2023-07-13T03:19:01;15.00;;;6.70;;
57331;SDS011;43164;50.908;18.092;2023-07-13T03:21:31;13.40;;;6.70;;
57331;SDS011;43164;50.908;18.092;2023-07-13T03:24:06;11.90;;;7.00;;
57331;SDS011;43164;50.908;18.092;2023-07-13T03:26:35;15.70;;;7.00;;
57331;SDS011;43164;50.908;18.092;2023-07-13T03:29:04;14.50;;;7.10;;
57331;SDS011;43164;50.908;18.092;2023-07-13T03:31:34;13.40;;;6.20;;
57331;SDS011;43164;50.908;18.092;2023-07-13T03:34:03;12.30;;;6.30;;
57331;SDS011;43164;50.908;18.092;2023-07-13T03:36:31;10.60;;;6.60;;
57331;SDS011;43164;50.908;18.092;2023-07-13T03:39:00;12.70;;;6.50;;
57331;SDS011;43164;50.908;18.092;2023-07-13T03:41:29;12.00;;;5.70;;
57331;SDS011;43164;50.908;18.092;2023-07-13T03:43:59;13.50;;;6.10;;
57331;SDS011;43164;50.908;18.092;2023-07-13T03:46:26;11.60;;;6.10;;
57331;SDS011;43164;50.908;18.092;2023-07-13T03:48:54;12.60;;;5.10;;
57331;SDS011;43164;50.908;18.092;2023-07-13T03:51:22;11.20;;;4.60;;
57331;SDS011;43164;50.908;18.092;2023-07-13T03:53:51;9.50;;;4.70;;
57331;SDS011;43164;50.908;18.092;2023-07-13T03:56:19;9.90;;;5.70;;
57331;SDS011;43164;50.908;18.092;2023-07-13T03:58:49;9.50;;;5.30;;
57331;SDS011;43164;50.908;18.092;2023-07-13T04:01:18;8.30;;;5.20;;
57331;SDS011;43164;50.908;18.092;2023-07-13T04:03:48;10.90;;;5.40;;
57331;SDS011;43164;50.908;18.092;2023-07-13T04:06:25;8.50;;;5.00;;
57331;SDS011;43164;50.908;18.092;2023-07-13T04:08:57;9.50;;;4.90;;
57331;SDS011;43164;50.908;18.092;2023-07-13T04:11:28;10.80;;;5.00;;
57331;SDS011;43164;50.908;18.092;2023-07-13T04:13:58;10.50;;;4.70;;
57331;SDS011;43164;50.908;18.092;2023-07-13T04:16:27;9.20;;;4.20;;
57331;SDS011;43164;50.908;18.092;2023-07-13T04:18:57;9.40;;;4.30;;
57331;SDS011;43164;50.908;18.092;2023-07-13T04:21:28;9.40;;;4.30;;
57331;SDS011;43164;50.908;18.092;2023-07-13T04:23:58;10.50;;;4.50;;
57331;SDS011;43164;50.908;18.092;2023-07-13T04:26:26;11.20;;;4.70;;
57331;SDS011;43164;50.908;18.092;2023-07-13T04:28:55;10.60;;;4.40;;
57331;SDS011;43164;50.908;18.092;2023-07-13T04:31:28;9.30;;;4.50;;
57331;SDS011;43164;50.908;18.092;2023-07-13T04:34:00;9.50;;;5.10;;
57331;SDS011;43164;50.908;18.092;2023-07-13T04:36:28;9.10;;;6.00;;
57331;SDS011;43164;50.908;18.092;2023-07-13T04:38:59;12.70;;;8.60;;
57331;SDS011;43164;50.908;18.092;2023-07-13T04:41:33;14.10;;;8.60;;
57331;SDS011;43164;50.908;18.092;2023-07-13T04:44:04;12.90;;;7.60;;
57331;SDS011;43164;50.908;18.092;2023-07-13T04:46:42;13.00;;;8.10;;
57331;SDS011;43164;50.908;18.092;2023-07-13T04:49:10;14.00;;;7.70;;
57331;SDS011;43164;50.908;18.092;2023-07-13T04:51:46;13.20;;;6.60;;
57331;SDS011;43164;50.908;18.092;2023-07-13T04:54:16;12.40;;;5.80;;
57331;SDS011;43164;50.908;18.092;2023-07-13T04:56:52;10.90;;;5.30;;
57331;SDS011;43164;50.908;18.092;2023-07-13T04:59:21;8.60;;;4.20;;
57331;SDS011;43164;50.908;18.092;2023-07-13T05:01:57;9.50;;;5.20;;
57331;SDS011;43164;50.908;18.092;2023-07-13T05:04:25;8.20;;;4.60;;
57331;SDS011;43164;50.908;18.092;2023-07-13T05:07:01;9.00;;;4.80;;
57331;SDS011;43164;50.908;18.092;2023-07-13T05:09:30;10.70;;;4.80;;
57331;SDS011;43164;50.908;18.092;2023-07-13T05:12:06;9.20;;;4.70;;
57331;SDS011;43164;50.908;18.092;2023-07-13T05:14:38;9.20;;;5.10;;
57331;SDS011;43164;50.908;18.092;2023-07-13T05:17:12;10.70;;;5.30;;
57331;SDS011;43164;50.908;18.092;2023-07-13T05:19:50;10.00;;;5.40;;
57331;SDS011;43164;50.908;18.092;2023-07-13T05:22:26;9.80;;;5.10;;
57331;SDS011;43164;50.908;18.092;2023-07-13T05:24:57;9.00;;;5.20;;
57331;SDS011;43164;50.908;18.092;2023-07-13T05:27:33;8.20;;;5.10;;
57331;SDS011;43164;50.908;18.092;2023-07-13T05:30:05;8.00;;;5.20;;
57331;SDS011;43164;50.908;18.092;2023-07-13T05:32:43;8.80;;;5.30;;
57331;SDS011;43164;50.908;18.092;2023-07-13T05:35:16;11.40;;;5.60;;
57331;SDS011;43164;50.908;18.092;2023-07-13T05:37:52;10.20;;;5.70;;
57331;SDS011;43164;50.908;18.092;2023-07-13T05:40:21;8.90;;;5.50;;
57331;SDS011;43164;50.908;18.092;2023-07-13T05:42:57;11.30;;;5.90;;
57331;SDS011;43164;50.908;18.092;2023-07-13T05:45:27;13.20;;;5.90;;
57331;SDS011;43164;50.908;18.092;2023-07-13T05:48:04;10.60;;;5.60;;
57331;SDS011;43164;50.908;18.092;2023-07-13T05:50:34;8.80;;;5.40;;
57331;SDS011;43164;50.908;18.092;2023-07-13T05:53:09;10.70;;;4.90;;
57331;SDS011;43164;50.908;18.092;2023-07-13T05:55:41;12.40;;;5.50;;
57331;SDS011;43164;50.908;18.092;2023-07-13T05:58:20;10.20;;;5.40;;
57331;SDS011;43164;50.908;18.092;2023-07-13T06:00:57;10.90;;;5.90;;
57331;SDS011;43164;50.908;18.092;2023-07-13T06:03:46;10.80;;;6.30;;
57331;SDS011;43164;50.908;18.092;2023-07-13T06:06:14;13.00;;;6.00;;
57331;SDS011;43164;50.908;18.092;2023-07-13T06:08:43;10.70;;;5.80;;
57331;SDS011;43164;50.908;18.092;2023-07-13T06:11:22;11.30;;;5.10;;
57331;SDS011;43164;50.908;18.092;2023-07-13T06:13:52;9.30;;;5.60;;
57331;SDS011;43164;50.908;18.092;2023-07-13T06:16:20;9.90;;;4.50;;
57331;SDS011;43164;50.908;18.092;2023-07-13T06:18:49;8.60;;;3.70;;
57331;SDS011;43164;50.908;18.092;2023-07-13T06:21:20;10.30;;;3.70;;
57331;SDS011;43164;50.908;18.092;2023-07-13T06:23:50;9.00;;;3.30;;
57331;SDS011;43164;50.908;18.092;2023-07-13T06:29:19;8.10;;;3.10;;
57331;SDS011;43164;50.908;18.092;2023-07-13T06:31:47;6.60;;;2.60;;
57331;SDS011;43164;50.908;18.092;2023-07-13T06:34:21;7.90;;;2.70;;
57331;SDS011;43164;50.908;18.092;2023-07-13T06:36:50;11.30;;;2.90;;
57331;SDS011;43164;50.908;18.092;2023-07-13T06:39:18;5.10;;;1.80;;
57331;SDS011;43164;50.908;18.092;2023-07-13T06:41:52;5.80;;;2.20;;
57331;SDS011;43164;50.908;18.092;2023-07-13T06:44:22;5.80;;;2.20;;
57331;SDS011;43164;50.908;18.092;2023-07-13T06:46:56;5.80;;;1.70;;
57331;SDS011;43164;50.908;18.092;2023-07-13T06:49:29;5.70;;;1.30;;
57331;SDS011;43164;50.908;18.092;2023-07-13T06:52:00;5.60;;;1.70;;
57331;SDS011;43164;50.908;18.092;2023-07-13T06:54:29;5.40;;;1.50;;
57331;SDS011;43164;50.908;18.092;2023-07-13T06:57:05;5.30;;;1.40;;
57331;SDS011;43164;50.908;18.092;2023-07-13T06:59:38;2.80;;;1.20;;
57331;SDS011;43164;50.908;18.092;2023-07-13T07:02:13;3.90;;;1.20;;
57331;SDS011;43164;50.908;18.092;2023-07-13T07:04:41;3.80;;;1.40;;
57331;SDS011;43164;50.908;18.092;2023-07-13T07:07:17;3.70;;;1.30;;
57331;SDS011;43164;50.908;18.092;2023-07-13T07:09:46;3.90;;;1.10;;
57331;SDS011;43164;50.908;18.092;2023-07-13T07:12:22;5.00;;;1.00;;
57331;SDS011;43164;50.908;18.092;2023-07-13T07:14:51;4.60;;;1.20;;
57331;SDS011;43164;50.908;18.092;2023-07-13T07:17:28;4.30;;;1.10;;
57331;SDS011;43164;50.908;18.092;2023-07-13T07:19:57;4.70;;;1.20;;
57331;SDS011;43164;50.908;18.092;2023-07-13T07:22:35;3.20;;;1.00;;
57331;SDS011;43164;50.908;18.092;2023-07-13T07:25:08;3.20;;;1.20;;
57331;SDS011;43164;50.908;18.092;2023-07-13T07:27:50;3.10;;;0.90;;
57331;SDS011;43164;50.908;18.092;2023-07-13T07:33:25;4.00;;;1.20;;
57331;SDS011;43164;50.908;18.092;2023-07-13T07:36:00;2.80;;;0.70;;
57331;SDS011;43164;50.908;18.092;2023-07-13T07:38:29;4.30;;;0.80;;
57331;SDS011;43164;50.908;18.092;2023-07-13T07:41:10;2.60;;;0.80;;
57331;SDS011;43164;50.908;18.092;2023-07-13T07:43:53;2.60;;;0.80;;
57331;SDS011;43164;50.908;18.092;2023-07-13T07:46:30;4.80;;;0.80;;
57331;SDS011;43164;50.908;18.092;2023-07-13T07:49:02;3.30;;;0.90;;
57331;SDS011;43164;50.908;18.092;2023-07-13T07:51:35;2.70;;;0.90;;
57331;SDS011;43164;50.908;18.092;2023-07-13T07:54:04;4.80;;;1.10;;
57331;SDS011;43164;50.908;18.092;2023-07-13T07:59:27;2.10;;;0.80;;
57331;SDS011;43164;50.908;18.092;2023-07-13T08:02:03;3.80;;;0.90;;
57331;SDS011;43164;50.908;18.092;2023-07-13T08:04:34;3.10;;;1.00;;
57331;SDS011;43164;50.908;18.092;2023-07-13T08:07:10;3.90;;;1.00;;
57331;SDS011;43164;50.908;18.092;2023-07-13T08:09:42;5.80;;;1.10;;
57331;SDS011;43164;50.908;18.092;2023-07-13T08:12:17;5.30;;;1.20;;
57331;SDS011;43164;50.908;18.092;2023-07-13T08:14:49;8.10;;;1.70;;
57331;SDS011;43164;50.908;18.092;2023-07-13T08:17:35;7.20;;;1.50;;
57331;SDS011;43164;50.908;18.092;2023-07-13T08:20:05;6.70;;;1.40;;
57331;SDS011;43164;50.908;18.092;2023-07-13T08:22:47;5.90;;;1.40;;
57331;SDS011;43164;50.908;18.092;2023-07-13T08:25:16;7.50;;;1.30;;
57331;SDS011;43164;50.908;18.092;2023-07-13T08:27:50;5.40;;;1.30;;
57331;SDS011;43164;50.908;18.092;2023-07-13T08:30:21;4.00;;;0.90;;
57331;SDS011;43164;50.908;18.092;2023-07-13T08:32:54;5.50;;;1.10;;
57331;SDS011;43164;50.908;18.092;2023-07-13T08:54:45;4.10;;;0.90;;
57331;SDS011;43164;50.908;18.092;2023-07-13T09:02:59;6.20;;;1.30;;
57331;SDS011;43164;50.908;18.092;2023-07-13T09:19:00;3.70;;;1.20;;
57331;SDS011;43164;50.908;18.092;2023-07-13T09:21:53;4.90;;;0.90;;
57331;SDS011;43164;50.908;18.092;2023-07-13T09:46:36;3.70;;;1.00;;
57331;SDS011;43164;50.908;18.092;2023-07-13T09:49:29;2.90;;;0.90;;
57331;SDS011;43164;50.908;18.092;2023-07-13T09:52:43;3.60;;;1.00;;
57331;SDS011;43164;50.908;18.092;2023-07-13T09:58:12;7.60;;;2.40;;
57331;SDS011;43164;50.908;18.092;2023-07-13T10:01:00;4.60;;;0.90;;
57331;SDS011;43164;50.908;18.092;2023-07-13T10:03:42;4.10;;;1.00;;
57331;SDS011;43164;50.908;18.092;2023-07-13T10:06:22;5.70;;;1.10;;
57331;SDS011;43164;50.908;18.092;2023-07-13T10:08:55;7.40;;;1.80;;
57331;SDS011;43164;50.908;18.092;2023-07-13T10:11:31;5.00;;;1.40;;
57331;SDS011;43164;50.908;18.092;2023-07-13T10:14:20;4.00;;;1.20;;
57331;SDS011;43164;50.908;18.092;2023-07-13T10:17:06;3.80;;;1.00;;
57331;SDS011;43164;50.908;18.092;2023-07-13T10:19:41;3.10;;;1.00;;
57331;SDS011;43164;50.908;18.092;2023-07-13T10:22:21;3.20;;;1.10;;
57331;SDS011;43164;50.908;18.092;2023-07-13T10:25:26;3.50;;;1.20;;
57331;SDS011;43164;50.908;18.092;2023-07-13T10:28:09;2.90;;;1.00;;
57331;SDS011;43164;50.908;18.092;2023-07-13T10:30:52;4.10;;;1.10;;
57331;SDS011;43164;50.908;18.092;2023-07-13T10:33:29;6.50;;;1.20;;
57331;SDS011;43164;50.908;18.092;2023-07-13T10:36:05;2.30;;;0.80;;
57331;SDS011;43164;50.908;18.092;2023-07-13T10:39:04;3.50;;;0.80;;
57331;SDS011;43164;50.908;18.092;2023-07-13T10:41:38;3.10;;;0.90;;
57331;SDS011;43164;50.908;18.092;2023-07-13T10:44:21;5.80;;;1.10;;
57331;SDS011;43164;50.908;18.092;2023-07-13T10:47:03;4.10;;;1.00;;
57331;SDS011;43164;50.908;18.092;2023-07-13T10:49:40;3.40;;;0.90;;
57331;SDS011;43164;50.908;18.092;2023-07-13T10:58:40;1.80;;;0.70;;
57331;SDS011;43164;50.908;18.092;2023-07-13T11:01:12;3.40;;;1.00;;
57331;SDS011;43164;50.908;18.092;2023-07-13T11:03:58;1.60;;;0.70;;
57331;SDS011;43164;50.908;18.092;2023-07-13T11:06:36;3.90;;;0.90;;
57331;SDS011;43164;50.908;18.092;2023-07-13T11:15:04;3.70;;;1.60;;
57331;SDS011;43164;50.908;18.092;2023-07-13T11:17:50;3.60;;;0.70;;
57331;SDS011;43164;50.908;18.092;2023-07-13T11:20:33;2.80;;;0.80;;
57331;SDS011;43164;50.908;18.092;2023-07-13T11:25:49;1.80;;;0.60;;
57331;SDS011;43164;50.908;18.092;2023-07-13T11:28:24;2.70;;;0.80;;
57331;SDS011;43164;50.908;18.092;2023-07-13T11:31:01;2.30;;;0.80;;
57331;SDS011;43164;50.908;18.092;2023-07-13T11:36:23;2.60;;;0.70;;
57331;SDS011;43164;50.908;18.092;2023-07-13T11:39:25;2.20;;;0.60;;
57331;SDS011;43164;50.908;18.092;2023-07-13T11:45:44;2.80;;;0.50;;
57331;SDS011;43164;50.908;18.092;2023-07-13T11:51:22;2.10;;;0.60;;
57331;SDS011;43164;50.908;18.092;2023-07-13T11:54:21;1.60;;;0.50;;
57331;SDS011;43164;50.908;18.092;2023-07-13T11:56:58;1.50;;;0.50;;
57331;SDS011;43164;50.908;18.092;2023-07-13T11:59:51;3.50;;;0.70;;
57331;SDS011;43164;50.908;18.092;2023-07-13T12:02:30;2.40;;;0.60;;
57331;SDS011;43164;50.908;18.092;2023-07-13T12:05:13;1.40;;;0.50;;
57331;SDS011;43164;50.908;18.092;2023-07-13T12:07:56;2.30;;;0.60;;
57331;SDS011;43164;50.908;18.092;2023-07-13T12:10:29;2.00;;;0.60;;
57331;SDS011;43164;50.908;18.092;2023-07-13T12:13:10;1.90;;;0.70;;
57331;SDS011;43164;50.908;18.092;2023-07-13T12:15:45;4.20;;;0.60;;
57331;SDS011;43164;50.908;18.092;2023-07-13T12:18:18;1.90;;;0.60;;
57331;SDS011;43164;50.908;18.092;2023-07-13T12:20:55;1.50;;;0.50;;
57331;SDS011;43164;50.908;18.092;2023-07-13T12:23:37;2.60;;;0.50;;
57331;SDS011;43164;50.908;18.092;2023-07-13T12:26:06;2.50;;;0.60;;
57331;SDS011;43164;50.908;18.092;2023-07-13T12:28:44;2.20;;;0.60;;
57331;SDS011;43164;50.908;18.092;2023-07-13T12:31:32;1.30;;;0.50;;
57331;SDS011;43164;50.908;18.092;2023-07-13T12:34:16;2.70;;;0.60;;
57331;SDS011;43164;50.908;18.092;2023-07-13T12:37:10;1.70;;;0.60;;
57331;SDS011;43164;50.908;18.092;2023-07-13T12:39:45;1.40;;;0.50;;
57331;SDS011;43164;50.908;18.092;2023-07-13T12:45:24;2.30;;;0.50;;
57331;SDS011;43164;50.908;18.092;2023-07-13T12:51:08;1.10;;;0.50;;
57331;SDS011;43164;50.908;18.092;2023-07-13T12:56:49;1.60;;;0.40;;
57331;SDS011;43164;50.908;18.092;2023-07-13T12:59:28;1.50;;;0.60;;
57331;SDS011;43164;50.908;18.092;2023-07-13T13:02:02;3.00;;;0.50;;
57331;SDS011;43164;50.908;18.092;2023-07-13T13:04:54;1.00;;;0.30;;
57331;SDS011;43164;50.908;18.092;2023-07-13T13:07:39;1.20;;;0.50;;
57331;SDS011;43164;50.908;18.092;2023-07-13T13:13:12;1.50;;;0.40;;
57331;SDS011;43164;50.908;18.092;2023-07-13T13:15:51;2.90;;;0.50;;
57331;SDS011;43164;50.908;18.092;2023-07-13T13:18:36;1.60;;;0.40;;
57331;SDS011;43164;50.908;18.092;2023-07-13T13:21:24;3.20;;;0.50;;
57331;SDS011;43164;50.908;18.092;2023-07-13T13:23:55;1.00;;;0.40;;
57331;SDS011;43164;50.908;18.092;2023-07-13T13:26:24;1.50;;;0.50;;
57331;SDS011;43164;50.908;18.092;2023-07-13T13:28:52;1.10;;;0.40;;
57331;SDS011;43164;50.908;18.092;2023-07-13T13:31:26;2.80;;;0.60;;
57331;SDS011;43164;50.908;18.092;2023-07-13T13:34:04;1.00;;;0.40;;
57331;SDS011;43164;50.908;18.092;2023-07-13T13:36:54;1.20;;;0.40;;
57331;SDS011;43164;50.908;18.092;2023-07-13T13:39:30;1.50;;;0.60;;
57331;SDS011;43164;50.908;18.092;2023-07-13T13:42:08;1.40;;;0.50;;
57331;SDS011;43164;50.908;18.092;2023-07-13T13:44:45;1.60;;;0.60;;
57331;SDS011;43164;50.908;18.092;2023-07-13T13:47:31;1.20;;;0.50;;
57331;SDS011;43164;50.908;18.092;2023-07-13T13:50:09;4.00;;;0.60;;
57331;SDS011;43164;50.908;18.092;2023-07-13T13:52:50;2.20;;;0.60;;
57331;SDS011;43164;50.908;18.092;2023-07-13T13:55:19;1.70;;;0.60;;
57331;SDS011;43164;50.908;18.092;2023-07-13T13:57:53;2.30;;;0.60;;
57331;SDS011;43164;50.908;18.092;2023-07-13T14:00:21;2.50;;;0.70;;
57331;SDS011;43164;50.908;18.092;2023-07-13T14:02:53;2.40;;;0.80;;
57331;SDS011;43164;50.908;18.092;2023-07-13T14:05:24;2.10;;;0.70;;
57331;SDS011;43164;50.908;18.092;2023-07-13T14:07:55;5.50;;;0.80;;
57331;SDS011;43164;50.908;18.092;2023-07-13T14:10:32;2.40;;;0.80;;
57331;SDS011;43164;50.908;18.092;2023-07-13T14:13:03;2.30;;;0.70;;
57331;SDS011;43164;50.908;18.092;2023-07-13T14:15:37;3.80;;;0.80;;
57331;SDS011;43164;50.908;18.092;2023-07-13T14:18:19;1.70;;;0.80;;
57331;SDS011;43164;50.908;18.092;2023-07-13T14:20:49;2.30;;;0.80;;
57331;SDS011;43164;50.908;18.092;2023-07-13T14:23:29;2.50;;;0.60;;
57331;SDS011;43164;50.908;18.092;2023-07-13T14:25:57;2.00;;;0.70;;
57331;SDS011;43164;50.908;18.092;2023-07-13T14:28:34;2.90;;;0.80;;
57331;SDS011;43164;50.908;18.092;2023-07-13T14:31:47;6.10;;;0.80;;
57331;SDS011;43164;50.908;18.092;2023-07-13T14:34:41;2.50;;;0.70;;
57331;SDS011;43164;50.908;18.092;2023-07-13T14:37:13;2.90;;;0.80;;
57331;SDS011;43164;50.908;18.092;2023-07-13T14:39:43;2.30;;;0.80;;
57331;SDS011;43164;50.908;18.092;2023-07-13T14:42:15;1.40;;;0.60;;
57331;SDS011;43164;50.908;18.092;2023-07-13T14:44:49;4.80;;;0.90;;
57331;SDS011;43164;50.908;18.092;2023-07-13T14:47:18;2.10;;;0.60;;
57331;SDS011;43164;50.908;18.092;2023-07-13T14:50:07;2.80;;;0.60;;
57331;SDS011;43164;50.908;18.092;2023-07-13T14:52:49;2.90;;;0.90;;
57331;SDS011;43164;50.908;18.092;2023-07-13T14:55:24;3.40;;;0.90;;
57331;SDS011;43164;50.908;18.092;2023-07-13T14:57:55;3.40;;;0.90;;
57331;SDS011;43164;50.908;18.092;2023-07-13T15:00:36;1.90;;;0.80;;
57331;SDS011;43164;50.908;18.092;2023-07-13T15:03:14;4.00;;;0.80;;
57331;SDS011;43164;50.908;18.092;2023-07-13T15:05:57;1.90;;;0.70;;
57331;SDS011;43164;50.908;18.092;2023-07-13T15:08:27;4.10;;;0.80;;
57331;SDS011;43164;50.908;18.092;2023-07-13T15:11:17;3.40;;;0.90;;
57331;SDS011;43164;50.908;18.092;2023-07-13T15:13:52;2.00;;;0.80;;
57331;SDS011;43164;50.908;18.092;2023-07-13T15:16:38;5.40;;;0.80;;
57331;SDS011;43164;50.908;18.092;2023-07-13T15:19:12;2.70;;;0.80;;
57331;SDS011;43164;50.908;18.092;2023-07-13T15:21:47;1.90;;;0.60;;
57331;SDS011;43164;50.908;18.092;2023-07-13T15:24:15;4.40;;;0.60;;
57331;SDS011;43164;50.908;18.092;2023-07-13T15:26:48;3.20;;;0.80;;
57331;SDS011;43164;50.908;18.092;2023-07-13T15:29:16;2.60;;;0.70;;
57331;SDS011;43164;50.908;18.092;2023-07-13T15:31:46;3.20;;;0.90;;
57331;SDS011;43164;50.908;18.092;2023-07-13T15:34:19;2.20;;;0.70;;
57331;SDS011;43164;50.908;18.092;2023-07-13T15:36:53;3.50;;;0.90;;
57331;SDS011;43164;50.908;18.092;2023-07-13T15:39:22;3.30;;;0.90;;
57331;SDS011;43164;50.908;18.092;2023-07-13T15:41:51;3.00;;;0.80;;
57331;SDS011;43164;50.908;18.092;2023-07-13T15:44:22;3.50;;;0.90;;
57331;SDS011;43164;50.908;18.092;2023-07-13T15:46:53;3.50;;;0.90;;
57331;SDS011;43164;50.908;18.092;2023-07-13T15:49:21;3.70;;;1.00;;
57331;SDS011;43164;50.908;18.092;2023-07-13T15:51:51;3.30;;;0.90;;
57331;SDS011;43164;50.908;18.092;2023-07-13T15:54:20;3.20;;;0.90;;
57331;SDS011;43164;50.908;18.092;2023-07-13T15:56:53;4.10;;;1.00;;
57331;SDS011;43164;50.908;18.092;2023-07-13T15:59:26;2.20;;;0.80;;
57331;SDS011;43164;50.908;18.092;2023-07-13T16:02:16;2.80;;;0.80;;
57331;SDS011;43164;50.908;18.092;2023-07-13T16:04:47;2.20;;;0.90;;
57331;SDS011;43164;50.908;18.092;2023-07-13T16:07:15;3.60;;;0.90;;
57331;SDS011;43164;50.908;18.092;2023-07-13T16:09:45;4.10;;;0.80;;
57331;SDS011;43164;50.908;18.092;2023-07-13T16:12:17;2.90;;;0.90;;
57331;SDS011;43164;50.908;18.092;2023-07-13T16:14:56;3.60;;;0.80;;
57331;SDS011;43164;50.908;18.092;2023-07-13T16:19:59;2.50;;;0.80;;
57331;SDS011;43164;50.908;18.092;2023-07-13T16:22:32;1.80;;;0.70;;
57331;SDS011;43164;50.908;18.092;2023-07-13T16:25:16;3.20;;;1.10;;
57331;SDS011;43164;50.908;18.092;2023-07-13T16:27:46;5.70;;;1.10;;
57331;SDS011;43164;50.908;18.092;2023-07-13T16:30:21;2.80;;;0.80;;
57331;SDS011;43164;50.908;18.092;2023-07-13T16:32:56;4.90;;;0.80;;
57331;SDS011;43164;50.908;18.092;2023-07-13T16:35:38;1.80;;;0.60;;
57331;SDS011;43164;50.908;18.092;2023-07-13T16:38:25;5.90;;;1.10;;
57331;SDS011;43164;50.908;18.092;2023-07-13T16:40:58;3.10;;;0.80;;
57331;SDS011;43164;50.908;18.092;2023-07-13T16:43:27;2.50;;;0.90;;
57331;SDS011;43164;50.908;18.092;2023-07-13T16:46:02;3.60;;;0.90;;
57331;SDS011;43164;50.908;18.092;2023-07-13T16:48:31;3.00;;;0.80;;
57331;SDS011;43164;50.908;18.092;2023-07-13T16:51:00;3.20;;;1.30;;
57331;SDS011;43164;50.908;18.092;2023-07-13T16:53:34;2.10;;;0.80;;
57331;SDS011;43164;50.908;18.092;2023-07-13T16:56:05;3.60;;;0.80;;
57331;SDS011;43164;50.908;18.092;2023-07-13T16:58:54;5.10;;;0.90;;
57331;SDS011;43164;50.908;18.092;2023-07-13T17:01:30;4.30;;;0.90;;
57331;SDS011;43164;50.908;18.092;2023-07-13T17:03:59;5.60;;;0.90;;
57331;SDS011;43164;50.908;18.092;2023-07-13T17:06:36;3.30;;;0.80;;
57331;SDS011;43164;50.908;18.092;2023-07-13T17:09:04;2.90;;;1.00;;